createdAt,value
2023-04-03T00:03:29.138Z,99490.31
2023-04-03T00:08:33.533Z,99485.75
2023-04-03T00:13:36.585Z,99481.22
2023-04-03T00:18:41.516Z,99488.97
2023-04-03T00:23:44.235Z,99479.09
2023-04-03T00:28:47.002Z,99485.22
2023-04-03T00:33:51.069Z,99491.22
2023-04-03T00:38:53.864Z,99479.81
2023-04-03T00:43:57.120Z,99480.59
2023-04-03T00:49:01.563Z,99482.25
2023-04-03T00:54:08.970Z,99478.47
2023-04-03T00:59:17.050Z,99486.44
2023-04-03T01:04:30.939Z,99483.75
2023-04-03T01:09:34.897Z,99477.56
2023-04-03T01:14:37.773Z,99471.41
2023-04-03T01:19:49.769Z,99466.13
2023-04-03T01:24:54.214Z,99464.41
2023-04-03T01:29:57.192Z,99461.78
2023-04-03T01:35:01.500Z,99472.28
2023-04-03T01:40:04.793Z,99461.78
2023-04-03T01:45:08.553Z,99465.19
2023-04-03T01:50:12.775Z,99468.78
2023-04-03T01:55:16.048Z,99469.63
2023-04-03T02:00:19.717Z,99467.94
2023-04-03T02:05:23.770Z,99462.66
2023-04-03T02:10:26.859Z,99470.91
2023-04-03T02:15:29.793Z,99469.31
2023-04-03T02:20:34.466Z,99465.25
2023-04-03T02:25:38.573Z,99468.19
2023-04-03T02:30:41.799Z,99456.88
2023-04-03T02:35:54.030Z,99461.53
2023-04-03T02:41:02.086Z,99453.06
2023-04-03T02:46:05.942Z,99455.09
2023-04-03T02:51:10.118Z,99457.91
2023-04-03T02:56:13.022Z,99464.22
2023-04-03T03:01:16.439Z,99468.13
2023-04-03T03:06:20.822Z,99461.47
2023-04-03T03:11:23.566Z,99473.34
2023-04-03T03:16:26.454Z,99478.09
2023-04-03T03:21:30.703Z,99479.19
2023-04-03T03:26:33.577Z,99484.75
2023-04-03T03:31:38.508Z,99480.78
2023-04-03T03:36:42.796Z,99494.06
2023-04-03T03:41:46.144Z,99493.44
2023-04-03T03:46:49.059Z,99489.41
2023-04-03T03:51:54.495Z,99494.88
2023-04-03T03:56:57.610Z,99494.28
2023-04-03T04:02:02.071Z,99494.56
2023-04-03T04:07:06.623Z,99506.41
2023-04-03T04:12:10.713Z,99506.69
2023-04-03T04:17:14.629Z,99508.69
2023-04-03T04:22:18.832Z,99514.19
2023-04-03T04:27:21.801Z,99514.56
2023-04-03T04:32:25.374Z,99507.84
2023-04-03T04:37:30.286Z,99507.91
2023-04-03T04:42:33.791Z,99506.41
2023-04-03T04:47:37.355Z,99506.63
2023-04-03T04:52:42.618Z,99527.91
2023-04-03T04:57:46.071Z,99530.88
2023-04-03T05:02:49.868Z,99538.81
2023-04-03T05:07:56.502Z,99537.97
2023-04-03T05:13:00.162Z,99543.34
2023-04-03T05:18:03.630Z,99555.78
2023-04-03T05:23:08.477Z,99551.19
2023-04-03T05:28:12.448Z,99542.50
2023-04-03T05:33:15.364Z,99550.19
2023-04-03T05:38:26.607Z,99559.69
2023-04-03T05:43:31.144Z,99566.41
2023-04-03T05:48:34.218Z,99575.78
2023-04-03T05:53:39.268Z,99580.38
2023-04-03T05:58:42.681Z,99572.78
2023-04-03T06:03:46.058Z,99576.66
2023-04-03T06:08:51.141Z,99584.47
2023-04-03T06:13:54.709Z,99597.56
2023-04-03T06:18:58.075Z,99601.00
2023-04-03T06:24:03.056Z,99596.50
2023-04-03T06:29:06.190Z,99605.22
2023-04-03T06:34:09.713Z,99612.78
2023-04-03T06:39:16.449Z,99610.34
2023-04-03T06:44:20.363Z,99614.75
2023-04-03T06:49:24.136Z,99619.22
2023-04-03T06:54:28.325Z,99619.31
2023-04-03T06:59:33.236Z,99616.81
2023-04-03T07:04:37.322Z,99621.06
2023-04-03T07:09:42.237Z,99633.00
2023-04-03T07:14:45.955Z,99638.09
2023-04-03T07:19:51.419Z,99644.81
2023-04-03T07:24:57.105Z,99654.53
2023-04-03T07:30:01.612Z,99654.00
2023-04-03T07:35:04.676Z,99665.69
2023-04-03T07:40:11.016Z,99664.22
2023-04-03T07:45:14.171Z,99658.53
2023-04-03T07:50:19.668Z,99660.72
2023-04-03T07:55:23.924Z,99659.50
2023-04-03T08:00:26.948Z,99664.72
2023-04-03T08:05:29.832Z,99658.53
2023-04-03T08:10:34.104Z,99666.38
2023-04-03T08:15:37.862Z,99652.28
2023-04-03T08:20:41.892Z,99656.34
2023-04-03T08:25:46.555Z,99666.81
2023-04-03T08:30:51.934Z,99657.75
2023-04-03T08:35:54.802Z,99673.56
2023-04-03T08:41:16.344Z,99663.81
2023-04-03T08:46:24.594Z,99669.34
2023-04-03T08:51:29.032Z,99662.44
2023-04-03T08:56:35.741Z,99669.16
2023-04-03T09:01:42.030Z,99676.38
2023-04-03T09:06:49.786Z,99683.22
2023-04-03T09:12:02.556Z,99676.00
2023-04-03T09:17:13.211Z,99682.09
2023-04-03T09:22:19.574Z,99675.81
2023-04-03T09:27:23.904Z,99682.59
2023-04-03T09:32:31.588Z,99679.06
2023-04-03T09:37:41.104Z,99675.13
2023-04-03T09:42:48.915Z,99674.31
2023-04-03T09:48:10.379Z,99673.06
2023-04-03T09:53:30.108Z,99676.69
2023-04-03T09:58:49.561Z,99679.78
2023-04-03T10:04:06.935Z,99671.06
2023-04-03T10:09:20.283Z,99663.22
2023-04-03T10:14:24.544Z,99668.50
2023-04-03T10:19:37.651Z,99669.00
2023-04-03T10:24:50.603Z,99672.63
2023-04-03T10:30:02.078Z,99677.34
2023-04-03T10:35:15.994Z,99669.34
2023-04-03T10:40:32.136Z,99668.78
2023-04-03T10:45:51.660Z,99656.22
2023-04-03T10:51:04.372Z,99659.81
2023-04-03T10:56:15.628Z,99666.44
2023-04-03T11:01:25.387Z,99665.41
2023-04-03T11:06:35.793Z,99659.81
2023-04-03T11:11:41.925Z,99649.38
2023-04-03T11:16:54.420Z,99657.47
2023-04-03T11:22:03.261Z,99645.72
2023-04-03T11:27:11.146Z,99626.03
2023-04-03T11:32:32.351Z,99622.91
2023-04-03T11:37:38.814Z,99616.31
2023-04-03T11:42:43.685Z,99632.13
2023-04-03T11:47:50.403Z,99625.59
2023-04-03T11:53:29.209Z,99611.19
2023-04-03T11:58:34.705Z,99616.41
2023-04-03T12:04:17.139Z,99614.97
2023-04-03T12:10:04.712Z,99611.25
2023-04-03T12:15:50.895Z,99606.78
2023-04-03T12:20:59.712Z,99595.63
2023-04-03T12:26:22.513Z,99614.22
2023-04-03T12:31:35.020Z,99587.09
2023-04-03T12:36:48.896Z,99584.47
2023-04-03T12:41:59.676Z,99577.69
2023-04-03T12:47:08.443Z,99573.44
2023-04-03T12:52:30.674Z,99565.44
2023-04-03T12:57:34.788Z,99557.84
2023-04-03T13:02:41.873Z,99551.09
2023-04-03T13:07:51.961Z,99557.00
2023-04-03T13:12:57.938Z,99556.66
2023-04-03T13:18:03.669Z,99556.69
2023-04-03T13:23:10.268Z,99558.91
2023-04-03T13:28:14.748Z,99549.91
2023-04-03T13:33:23.776Z,99543.66
2023-04-03T13:38:32.771Z,99541.06
2023-04-03T13:43:41.375Z,99537.34
2023-04-03T13:48:47.268Z,99526.69
2023-04-03T13:53:55.165Z,99524.00
2023-04-03T13:59:09.991Z,99520.47
2023-04-03T14:04:17.370Z,99522.31
2023-04-03T14:09:23.759Z,99521.22
2023-04-03T14:14:32.564Z,99509.16
2023-04-03T14:19:37.829Z,99511.84
2023-04-03T14:24:42.006Z,99496.16
2023-04-03T14:29:44.746Z,99506.84
2023-04-03T14:34:48.374Z,99500.38
2023-04-03T14:39:54.949Z,99489.41
2023-04-03T14:44:57.686Z,99483.31
2023-04-03T14:50:01.944Z,99489.84
2023-04-03T14:55:10.503Z,99488.50
2023-04-03T15:00:17.804Z,99482.47
2023-04-03T15:05:20.747Z,99477.38
2023-04-03T15:10:31.868Z,99480.31
2023-04-03T15:15:36.591Z,99482.31
2023-04-03T15:20:39.731Z,99475.47
2023-04-03T15:25:44.809Z,99471.69
2023-04-03T15:30:48.163Z,99475.38
2023-04-03T15:35:51.277Z,99471.25
2023-04-03T15:40:55.994Z,99484.75
2023-04-03T15:46:00.583Z,99476.59
2023-04-03T15:51:03.355Z,99480.97
2023-04-03T15:56:09.491Z,99470.16
2023-04-03T16:01:13.854Z,99457.88
2023-04-03T16:06:18.432Z,99478.00
2023-04-03T16:11:22.903Z,99475.75
2023-04-03T16:16:26.942Z,99477.53
2023-04-03T16:21:30.123Z,99480.03
2023-04-03T16:26:34.533Z,99473.31
2023-04-03T16:31:37.405Z,99482.97
2023-04-03T16:36:40.398Z,99478.44
2023-04-03T16:41:44.535Z,99475.47
2023-04-03T16:46:48.373Z,99480.56
2023-04-03T16:51:51.489Z,99472.28
2023-04-03T16:56:55.940Z,99485.00
2023-04-03T17:01:58.945Z,99484.91
2023-04-03T17:07:06.959Z,99485.09
2023-04-03T17:12:11.055Z,99481.13
2023-04-03T17:17:16.903Z,99484.06
2023-04-03T17:22:20.868Z,99487.75
2023-04-03T17:27:26.054Z,99492.00
2023-04-03T17:32:28.884Z,99488.41
2023-04-03T17:37:31.678Z,99489.38
2023-04-03T17:42:35.785Z,99498.91
2023-04-03T17:47:40.007Z,99506.34
2023-04-03T17:52:44.405Z,99500.81
2023-04-03T17:57:50.922Z,99511.28
2023-04-03T18:02:55.236Z,99514.19
2023-04-03T18:07:59.097Z,99509.09
2023-04-03T18:13:03.350Z,99515.69
2023-04-03T18:18:06.288Z,99512.94
2023-04-03T18:23:11.394Z,99526.03
2023-04-03T18:28:17.017Z,99525.47
2023-04-03T18:33:19.752Z,99531.19
2023-04-03T18:38:22.560Z,99535.31
2023-04-03T18:43:28.096Z,99528.16
2023-04-03T18:48:31.319Z,99530.28
2023-04-03T18:53:34.445Z,99539.59
2023-04-03T18:58:39.015Z,99539.09
2023-04-03T19:03:43.032Z,99539.66
2023-04-03T19:08:47.627Z,99547.75
2023-04-03T19:14:04.517Z,99550.72
2023-04-03T19:19:14.789Z,99551.91
2023-04-03T19:24:20.193Z,99564.44
2023-04-03T19:29:24.341Z,99558.75
2023-04-03T19:34:28.066Z,99558.09
2023-04-03T19:39:35.036Z,99565.69
2023-04-03T19:44:42.367Z,99569.44
2023-04-03T19:49:45.182Z,99565.59
2023-04-03T19:54:47.872Z,99562.13
2023-04-03T19:59:51.990Z,99560.88
2023-04-03T20:04:55.283Z,99566.34
2023-04-03T20:09:58.626Z,99557.69
2023-04-03T20:15:04.038Z,99562.28
2023-04-03T20:20:08.011Z,99572.19
2023-04-03T20:25:17.504Z,99568.09
2023-04-03T20:30:29.066Z,99561.22
2023-04-03T20:35:32.667Z,99564.22
2023-04-03T20:40:36.016Z,99567.84
2023-04-03T20:45:40.477Z,99567.41
2023-04-03T20:50:43.397Z,99562.63
2023-04-03T20:55:57.063Z,99561.84
2023-04-03T21:01:01.940Z,99562.88
2023-04-03T21:06:42.608Z,99562.13
2023-04-03T21:12:22.511Z,99558.13
2023-04-03T21:17:24.972Z,99554.81
2023-04-03T21:22:29.065Z,99547.97
2023-04-03T21:27:32.616Z,99556.06
2023-04-03T21:32:35.310Z,99550.84
2023-04-03T21:37:39.478Z,99548.75
2023-04-03T21:42:42.163Z,99560.13
2023-04-03T21:47:44.932Z,99555.97
2023-04-03T21:52:50.016Z,99557.97
2023-04-03T21:57:54.347Z,99556.38
2023-04-03T22:03:07.721Z,99545.25
2023-04-03T22:08:14.732Z,99550.66
2023-04-03T22:13:17.405Z,99551.91
2023-04-03T22:18:21.168Z,99546.78
2023-04-03T22:23:26.132Z,99554.94
2023-04-03T22:28:29.405Z,99543.81
2023-04-03T22:33:32.359Z,99555.41
2023-04-03T22:38:36.959Z,99560.84
2023-04-03T22:43:40.687Z,99562.03
2023-04-03T22:48:45.261Z,99557.88
2023-04-03T22:53:49.381Z,99560.72
2023-04-03T22:58:52.366Z,99551.13
2023-04-03T23:03:55.776Z,99553.94
2023-04-03T23:09:00.128Z,99557.13
2023-04-03T23:14:03.118Z,99557.31
2023-04-03T23:19:07.281Z,99553.97
2023-04-03T23:24:11.542Z,99563.84
2023-04-03T23:29:14.261Z,99559.09
2023-04-03T23:34:17.224Z,99553.34
2023-04-03T23:39:23.033Z,99552.69
2023-04-03T23:44:25.726Z,99548.84
2023-04-03T23:49:28.716Z,99549.69
2023-04-03T23:54:33.354Z,99539.47
2023-04-03T23:59:36.119Z,99526.72
